Terminal Aerodrome Forecast
Issued by NWS Charleston, WV

Current Version | Previous Version | Graphics & Text | Print | Product List | Glossary On
Versions: 1 2 3 4 5 6 7 8 9 10 11 12 13 14 15 16 17 18 19 20 21 22 23 24 25
000
FTUS41 KRLX 280541
TAFHTS
TAF
KHTS 280541Z 2806/2906 VRB03KT 6SM BR BKN004 OVC100
     FM280630 VRB03KT 3SM SHRA BR VCTS OVC014CB
     FM280830 15004KT 4SM BR VCSH OVC013
     FM281100 19004KT 3SM BR BKN012
     FM281500 23006KT P6SM BKN025
     FM281700 25008KT P6SM BKN050
     FM290000 27004KT P6SM SCT250=

USA.gov is the U.S. government's official web portal to all federal, state and local government web resources and services.